NCAR-RAP Real-Time Weather Data

Output produced by METARs form (01 October 2022  05:03 UTC)
found at http://weather.rap.ucar.edu/surface/
 
VTBD 010430Z 20007KT 170V230 9999 FEW020 SCT035 32/25 Q1008 NOSIG
VTBD 010400Z 20007KT 170V230 9999 FEW020 SCT035 32/25 Q1008 NOSIG
VTBD 010330Z 18009KT 130V220 9999 FEW020 SCT035 32/25 Q1009 NOSIG
VTBD 010300Z 17009KT 9999 SCT020 31/26 Q1009 NOSIG
VTBD 010230Z 18008KT 140V220 9999 SCT020 31/26 Q1009 NOSIG
VTBD 010200Z 15004KT 110V200 9999 FEW020 29/27 Q1009 NOSIG
VTBD 010130Z 13003KT 100V160 9999 FEW020 29/27 Q1009 NOSIG
VTBD 010100Z 14003KT 9999 FEW020 28/27 Q1008 NOSIG
VTBD 010030Z VRB02KT 9999 FEW020 27/27 Q1008 NOSIG
VTBD 010000Z 14003KT 9999 FEW020 27/27 Q1007 NOSIG
VTBD 302330Z 14004KT 9999 FEW020 26/26 Q1007 NOSIG
VTBD 302300Z 12003KT 9999 FEW020 26/26 Q1007 NOSIG
VTBD 302230Z 13003KT 9999 FEW020 26/26 Q1006 NOSIG
VTBD 302200Z 12003KT 9999 FEW020 26/26 Q1006 NOSIG
VTBD 302130Z 12004KT 9999 FEW020 26/26 Q1006 NOSIG
VTBD 302100Z 13004KT 9999 FEW020 26/26 Q1006 NOSIG
VTBD 302030Z 00000KT 9999 FEW020 26/26 Q1006 NOSIG
VTBD 302000Z 00000KT 9999 FEW020 27/26 Q1006 NOSIG
VTBD 301930Z 00000KT 9999 FEW020 27/25 Q1006 NOSIG
VTBD 301900Z 20002KT 9999 FEW020 27/26 Q1006 NOSIG
VTBD 301830Z 00000KT 9999 FEW020 27/26 Q1006 NOSIG
VTBD 301800Z 00000KT 9999 FEW020 27/26 Q1007 NOSIG
VTBD 301730Z 18003KT 9999 FEW020 27/25 Q1007 NOSIG